Time;durP1;ratioP1;P1;durP2;ratioP2;P2;SDS_P1;SDS_P2;PMS_P1;PMS_P2;Temp;Humidity;BMP_temperature;BMP_pressure;BME280_temperature;BME280_humidity;BME280_pressure;Samples;Min_cycle;Max_cycle;Signal;HPM_P1;HPM_P2
2023/03/10 00:01:13;;;;;;;4.47;1.50;;;;;;;10.65;nan;96170.00;5073485;28;20209;-75
2023/03/10 00:03:40;;;;;;;4.77;1.50;;;;;;;10.56;nan;96168.94;5073035;28;20566;-76
2023/03/10 00:06:07;;;;;;;4.23;1.20;;;;;;;10.52;nan;96162.56;5073403;28;20213;-76
2023/03/10 00:08:34;;;;;;;3.27;1.30;;;;;;;10.45;nan;96156.72;5072982;28;20224;-76
2023/03/10 00:11:00;;;;;;;4.00;1.20;;;;;;;10.44;nan;96144.47;5073362;28;20212;-75
2023/03/10 00:13:27;;;;;;;2.07;1.30;;;;;;;10.40;nan;96128.28;5073482;28;20228;-76
2023/03/10 00:15:53;;;;;;;3.83;1.40;;;;;;;10.35;nan;96128.28;5073069;28;20209;-75
2023/03/10 00:18:20;;;;;;;2.33;1.10;;;;;;;10.28;nan;96124.28;5073247;28;20205;-76
2023/03/10 00:20:46;;;;;;;5.47;1.33;;;;;;;10.27;nan;96114.72;5073789;28;20204;-75
2023/03/10 00:23:13;;;;;;;2.43;1.30;;;;;;;10.25;nan;96108.88;5073190;28;20590;-76
2023/03/10 00:25:39;;;;;;;4.37;1.40;;;;;;;10.27;nan;96109.41;5075341;28;20226;-76
2023/03/10 00:28:05;;;;;;;2.90;1.50;;;;;;;10.16;nan;96113.91;5077061;28;20235;-75
2023/03/10 00:30:34;;;;;;;4.77;1.60;;;;;;;10.10;nan;96104.31;5077061;28;20205;-76
2023/03/10 00:33:00;;;;;;;3.97;1.30;;;;;;;10.14;nan;96094.78;5076986;28;20320;-76
2023/03/10 00:35:27;;;;;;;2.47;1.40;;;;;;;10.27;nan;96093.47;5076897;28;20204;-75
2023/03/10 00:37:55;;;;;;;4.57;1.60;;;;;;;10.10;nan;96092.91;5076608;28;20212;-75
2023/03/10 00:40:21;;;;;;;4.00;1.37;;;;;;;10.10;nan;96085.72;5076872;28;20299;-75
2023/03/10 00:42:48;;;;;;;3.43;1.20;;;;;;;10.14;nan;96078.84;5076363;28;20220;-75
2023/03/10 00:45:14;;;;;;;4.13;1.60;;;;;;;10.20;nan;96064.53;5076667;28;20215;-76
2023/03/10 00:47:40;;;;;;;5.90;1.60;;;;;;;10.07;nan;96072.19;5076330;28;20220;-76
2023/03/10 00:50:07;;;;;;;3.47;1.20;;;;;;;10.07;nan;96074.84;5076650;28;20200;-76
2023/03/10 00:52:34;;;;;;;5.10;1.90;;;;;;;10.08;nan;96073.78;5076553;28;20221;-76
2023/03/10 00:55:00;;;;;;;3.50;1.37;;;;;;;10.03;nan;96055.97;5076281;28;20207;-75
2023/03/10 00:57:26;;;;;;;3.70;1.20;;;;;;;10.02;nan;96053.59;5076249;28;20200;-75
2023/03/10 00:59:53;;;;;;;4.37;1.50;;;;;;;9.95;nan;96061.78;5076149;28;20679;-76
2023/03/10 01:02:20;;;;;;;2.03;1.10;;;;;;;10.06;nan;96062.66;5076097;28;20729;-76
2023/03/10 01:04:47;;;;;;;1.60;1.10;;;;;;;10.07;nan;96054.44;5076411;28;20287;-75
2023/03/10 01:07:14;;;;;;;2.93;1.30;;;;;;;10.13;nan;96055.22;5075989;28;20205;-76
2023/03/10 01:09:40;;;;;;;3.37;1.20;;;;;;;9.98;nan;96049.84;5076922;28;20204;-75
2023/03/10 01:12:07;;;;;;;1.93;1.10;;;;;;;10.01;nan;96042.16;5076272;28;20229;-75
2023/03/10 01:14:33;;;;;;;2.40;1.20;;;;;;;10.21;nan;96041.41;5076214;28;20204;-75
2023/03/10 01:16:59;;;;;;;3.07;1.30;;;;;;;10.13;nan;96036.63;5075853;28;20581;-76
2023/03/10 01:19:26;;;;;;;2.47;1.20;;;;;;;10.06;nan;96034.25;5075070;28;20208;-76
2023/03/10 01:21:52;;;;;;;4.03;1.23;;;;;;;10.06;nan;96028.94;5076079;28;20221;-76
2023/03/10 01:24:18;;;;;;;3.63;1.47;;;;;;;10.11;nan;96025.47;5075834;28;20211;-76
2023/03/10 01:26:45;;;;;;;2.37;1.00;;;;;;;10.01;nan;96034.19;5076043;28;20590;-76
2023/03/10 01:29:11;;;;;;;4.67;1.30;;;;;;;9.94;nan;96025.72;5075977;28;20229;-76
2023/03/10 01:31:38;;;;;;;2.37;1.07;;;;;;;10.00;nan;96022.00;5075933;28;20210;-75
2023/03/10 01:34:05;;;;;;;2.03;1.00;;;;;;;10.15;nan;96022.06;5075994;28;20241;-76
2023/03/10 01:36:31;;;;;;;2.23;1.10;;;;;;;10.17;nan;96022.56;5075875;28;20207;-75
2023/03/10 01:38:59;;;;;;;2.13;1.10;;;;;;;10.09;nan;96020.44;5075860;28;20207;-75
2023/03/10 01:41:25;;;;;;;1.93;1.20;;;;;;;10.10;nan;96010.63;5075740;28;20201;-75
2023/03/10 01:43:55;;;;;;;3.47;1.30;;;;;;;10.06;nan;96006.91;5075966;28;20231;-75
2023/03/10 01:46:33;;;;;;;5.40;1.40;;;;;;;10.05;nan;96002.66;5075710;28;20212;-75
2023/03/10 01:49:05;;;;;;;3.90;1.30;;;;;;;10.00;nan;96008.72;5075642;28;20227;-75
2023/03/10 01:51:35;;;;;;;2.90;1.23;;;;;;;10.08;nan;96002.09;5075327;28;20185;-76
2023/03/10 01:54:07;;;;;;;3.30;1.10;;;;;;;10.01;nan;95998.91;5075594;28;20288;-76
2023/03/10 01:56:35;;;;;;;2.27;1.10;;;;;;;9.94;nan;96001.81;5075593;28;20605;-75
2023/03/10 01:59:02;;;;;;;2.87;1.27;;;;;;;9.97;nan;95997.84;5074314;28;20245;-75
2023/03/10 02:01:29;;;;;;;2.87;1.20;;;;;;;9.98;nan;95988.81;5075073;28;20669;-75
2023/03/10 02:04:07;;;;;;;1.87;0.97;;;;;;;10.01;nan;95989.06;5075277;28;20686;-75
2023/03/10 02:06:35;;;;;;;2.33;1.20;;;;;;;10.13;nan;95986.19;5075244;28;20189;-75
2023/03/10 02:09:04;;;;;;;1.87;1.00;;;;;;;10.20;nan;95971.59;5075218;28;20228;-75
2023/03/10 02:11:31;;;;;;;2.03;1.10;;;;;;;10.33;nan;95972.91;5075173;28;20208;-75
2023/03/10 02:14:03;;;;;;;1.27;0.90;;;;;;;10.31;nan;95972.38;5075188;28;20228;-76
2023/03/10 02:16:29;;;;;;;2.60;0.70;;;;;;;10.30;nan;95976.09;5074907;28;20216;-75
2023/03/10 02:18:56;;;;;;;2.47;0.90;;;;;;;10.37;nan;95977.41;5075087;28;20208;-76
2023/03/10 02:21:51;;;;;;;2.13;0.83;;;;;;;10.34;nan;95971.84;5074959;28;20216;-76
2023/03/10 02:24:28;;;;;;;2.77;1.03;;;;;;;10.43;nan;95971.03;5074678;28;20196;-75
2023/03/10 02:27:03;;;;;;;1.63;0.70;;;;;;;10.35;nan;95976.09;5074954;28;20193;-75
2023/03/10 02:29:34;;;;;;;1.27;0.70;;;;;;;10.37;nan;95979.28;5074789;28;20204;-75
2023/03/10 02:32:01;;;;;;;1.50;0.63;;;;;;;10.29;nan;95970.00;5073791;28;20572;-75
2023/03/10 02:34:28;;;;;;;0.97;0.60;;;;;;;10.25;nan;95963.63;5074730;28;20580;-75
2023/03/10 02:36:54;;;;;;;1.50;0.70;;;;;;;10.29;nan;95969.19;5074361;28;20211;-76
2023/03/10 02:39:21;;;;;;;2.37;0.70;;;;;;;10.24;nan;95966.53;5074348;28;20200;-76
2023/03/10 02:41:47;;;;;;;1.27;0.60;;;;;;;10.14;nan;95966.56;5074472;28;20208;-75
2023/03/10 02:44:19;;;;;;;1.40;0.60;;;;;;;10.20;nan;95970.78;5074250;28;20296;-75
2023/03/10 02:46:45;;;;;;;0.97;0.60;;;;;;;10.15;nan;95971.59;5075308;28;20211;-76
2023/03/10 02:49:12;;;;;;;1.17;0.60;;;;;;;10.13;nan;95962.28;5073891;28;20251;-76
2023/03/10 02:51:45;;;;;;;0.83;0.60;;;;;;;10.09;nan;95945.31;5074314;28;20209;-76
2023/03/10 02:54:12;;;;;;;1.50;0.73;;;;;;;10.04;nan;95945.28;5074142;28;20188;-75
2023/03/10 02:56:39;;;;;;;0.60;0.60;;;;;;;9.97;nan;95952.72;5073940;28;20213;-75
2023/03/10 02:59:07;;;;;;;1.20;0.50;;;;;;;9.93;nan;95938.38;5073939;28;20204;-76
2023/03/10 03:01:34;;;;;;;0.60;0.53;;;;;;;9.99;nan;95932.00;5074146;28;20200;-75
2023/03/10 03:04:01;;;;;;;0.80;0.60;;;;;;;10.00;nan;95929.09;5074182;28;20208;-75
2023/03/10 03:06:28;;;;;;;1.90;0.80;;;;;;;9.91;nan;95929.91;5074113;28;20212;-75
2023/03/10 03:08:55;;;;;;;1.17;0.60;;;;;;;10.00;nan;95939.69;5073956;28;20247;-76
2023/03/10 03:11:21;;;;;;;0.67;0.50;;;;;;;9.84;nan;95937.31;5073730;28;20208;-76
2023/03/10 03:13:48;;;;;;;1.47;0.70;;;;;;;9.76;nan;95943.16;5073938;28;20224;-75
2023/03/10 03:16:14;;;;;;;3.30;0.80;;;;;;;9.77;nan;95948.19;5073667;28;20208;-75
2023/03/10 03:18:40;;;;;;;1.17;0.50;;;;;;;9.77;nan;95937.59;5073918;28;20196;-76
2023/03/10 03:21:14;;;;;;;1.33;0.60;;;;;;;9.77;nan;95937.59;5073901;28;20204;-76
2023/03/10 03:23:41;;;;;;;1.60;0.77;;;;;;;9.79;nan;95935.47;5073788;28;20293;-75
2023/03/10 03:26:20;;;;;;;2.13;0.80;;;;;;;9.73;nan;95941.03;5073802;28;20216;-75
2023/03/10 03:28:47;;;;;;;1.20;0.60;;;;;;;9.65;nan;95945.00;5073471;28;20717;-75
2023/03/10 03:31:18;;;;;;;2.40;0.60;;;;;;;9.61;nan;95925.38;5073445;28;20682;-75
2023/03/10 03:33:45;;;;;;;0.97;0.60;;;;;;;9.55;nan;95928.28;5073783;28;20231;-75
2023/03/10 03:36:12;;;;;;;1.53;0.60;;;;;;;9.46;nan;95916.63;5073374;28;20211;-76
2023/03/10 03:38:39;;;;;;;1.00;0.50;;;;;;;9.47;nan;95918.19;5073610;28;20230;-76
2023/03/10 03:41:06;;;;;;;0.67;0.67;;;;;;;9.45;nan;95909.69;5073215;28;20212;-76
2023/03/10 03:43:33;;;;;;;1.47;0.60;;;;;;;9.46;nan;95906.00;5073307;28;20224;-76
2023/03/10 03:46:00;;;;;;;1.20;0.80;;;;;;;9.47;nan;95904.94;5073408;28;20208;-75
2023/03/10 03:48:26;;;;;;;2.00;0.80;;;;;;;9.46;nan;95912.09;5073265;28;20221;-76
2023/03/10 03:50:53;;;;;;;1.50;0.70;;;;;;;9.35;nan;95920.28;5072981;28;20571;-76
2023/03/10 03:53:19;;;;;;;1.27;0.80;;;;;;;9.30;nan;95918.44;5073341;28;20233;-76
2023/03/10 03:55:45;;;;;;;1.07;0.50;;;;;;;9.38;nan;95914.47;5073180;28;20546;-75
2023/03/10 03:58:12;;;;;;;1.30;0.60;;;;;;;9.30;nan;95912.31;5073098;28;20566;-76
2023/03/10 04:00:39;;;;;;;1.47;0.70;;;;;;;9.29;nan;95897.47;5072432;28;20208;-76
2023/03/10 04:03:05;;;;;;;0.67;0.50;;;;;;;9.34;nan;95893.00;5073272;28;20323;-76
2023/03/10 04:05:32;;;;;;;1.60;0.30;;;;;;;9.24;nan;95886.88;5073122;28;20201;-76
2023/03/10 04:07:58;;;;;;;0.30;0.30;;;;;;;9.18;nan;95898.50;5073310;28;20212;-76
2023/03/10 04:10:25;;;;;;;1.70;0.57;;;;;;;9.26;nan;95898.00;5073209;28;20200;-76
2023/03/10 04:12:52;;;;;;;0.97;0.40;;;;;;;9.29;nan;95898.28;5073420;28;20232;-76
2023/03/10 04:15:18;;;;;;;0.73;0.50;;;;;;;9.22;nan;95891.63;5073038;28;20212;-76
2023/03/10 04:17:45;;;;;;;0.90;0.50;;;;;;;9.18;nan;95898.50;5073123;28;20204;-75
2023/03/10 04:20:13;;;;;;;1.30;0.60;;;;;;;9.18;nan;95896.66;5073143;28;20196;-76
2023/03/10 04:22:39;;;;;;;1.07;0.60;;;;;;;9.22;nan;95887.13;5072882;28;20278;-76
2023/03/10 04:25:07;;;;;;;0.40;0.40;;;;;;;9.23;nan;95880.75;5072932;28;20227;-75
2023/03/10 04:27:35;;;;;;;1.33;0.40;;;;;;;9.18;nan;95874.66;5073030;28;20204;-76
2023/03/10 04:30:01;;;;;;;0.53;0.50;;;;;;;9.26;nan;95887.41;5072921;28;20235;-76
2023/03/10 04:32:27;;;;;;;0.83;0.60;;;;;;;9.26;nan;95884.75;5072789;28;20251;-76
2023/03/10 04:34:54;;;;;;;1.37;0.50;;;;;;;9.18;nan;95898.50;5072839;28;20212;-76
2023/03/10 04:37:21;;;;;;;0.70;0.40;;;;;;;9.11;nan;95898.78;5072595;28;20205;-76
2023/03/10 04:39:47;;;;;;;1.93;0.73;;;;;;;9.18;nan;95890.56;5072617;28;20732;-76
2023/03/10 04:42:14;;;;;;;0.50;0.50;;;;;;;9.14;nan;95887.63;5072424;28;20235;-76
2023/03/10 04:44:40;;;;;;;0.70;0.40;;;;;;;9.07;nan;95884.47;5072531;28;20212;-76
2023/03/10 04:47:06;;;;;;;0.47;0.47;;;;;;;9.14;nan;95886.88;5072262;28;20205;-76
2023/03/10 04:49:33;;;;;;;0.50;0.50;;;;;;;9.19;nan;95886.88;5072730;28;20232;-76
2023/03/10 04:51:59;;;;;;;0.47;0.47;;;;;;;9.13;nan;95891.34;5072793;28;20232;-76
2023/03/10 04:54:25;;;;;;;0.90;0.40;;;;;;;9.23;nan;95890.59;5072554;28;20208;-76
2023/03/10 04:56:52;;;;;;;1.67;0.63;;;;;;;9.16;nan;95890.84;5072436;28;20214;-75
2023/03/10 04:59:20;;;;;;;0.87;0.40;;;;;;;9.27;nan;95876.53;5073016;28;20217;-75
2023/03/10 05:01:47;;;;;;;1.50;0.50;;;;;;;9.30;nan;95881.31;5072115;28;20538;-76
2023/03/10 05:04:13;;;;;;;1.10;0.70;;;;;;;9.36;nan;95866.19;5071939;28;20628;-76
2023/03/10 05:06:39;;;;;;;2.03;0.70;;;;;;;9.32;nan;95857.19;5072547;28;20216;-76
2023/03/10 05:09:06;;;;;;;1.83;0.50;;;;;;;9.24;nan;95855.06;5072358;28;20227;-76
2023/03/10 05:11:32;;;;;;;1.93;0.60;;;;;;;9.19;nan;95850.53;5074650;28;20200;-76
2023/03/10 05:13:59;;;;;;;1.43;0.73;;;;;;;9.14;nan;95852.41;5075881;28;20686;-76
2023/03/10 05:16:25;;;;;;;0.47;0.37;;;;;;;8.96;nan;95845.72;5075498;28;20209;-76
2023/03/10 05:18:52;;;;;;;2.47;0.67;;;;;;;8.90;nan;95843.31;5076073;28;20200;-76
2023/03/10 05:21:20;;;;;;;0.40;0.40;;;;;;;8.93;nan;95845.47;5075662;28;20697;-76
2023/03/10 05:23:46;;;;;;;2.13;0.70;;;;;;;8.81;nan;95839.59;5075756;28;20228;-76
2023/03/10 05:26:13;;;;;;;1.17;0.50;;;;;;;8.92;nan;95830.63;5075839;28;20208;-76
2023/03/10 05:28:39;;;;;;;1.60;0.60;;;;;;;8.98;nan;95821.63;5075435;28;20694;-76
2023/03/10 05:31:10;;;;;;;0.70;0.60;;;;;;;8.95;nan;95825.59;5075580;28;20211;-76
2023/03/10 05:33:37;;;;;;;2.30;0.70;;;;;;;8.88;nan;95814.44;5076152;28;20231;-76
2023/03/10 05:36:13;;;;;;;1.33;0.70;;;;;;;8.88;nan;95813.66;5075553;28;20209;-75
2023/03/10 05:38:39;;;;;;;1.73;0.70;;;;;;;8.84;nan;95817.88;5075498;28;20222;-76
2023/03/10 05:41:07;;;;;;;3.47;0.80;;;;;;;8.67;nan;95818.13;5075354;28;20204;-76
2023/03/10 05:43:34;;;;;;;1.40;0.80;;;;;;;8.48;nan;95819.66;5075028;28;20278;-76
2023/03/10 05:46:01;;;;;;;1.37;0.70;;;;;;;8.34;nan;95823.84;5074765;28;20664;-76
2023/03/10 05:48:28;;;;;;;0.97;0.80;;;;;;;8.34;nan;95831.78;5075525;28;20644;-76
2023/03/10 05:51:09;;;;;;;0.80;0.80;;;;;;;8.36;nan;95834.94;5075552;28;20219;-76
2023/03/10 05:53:36;;;;;;;1.80;0.70;;;;;;;8.52;nan;95827.88;5074844;28;20564;-76
2023/03/10 05:56:08;;;;;;;1.37;0.70;;;;;;;8.66;nan;95823.66;5075412;28;20209;-76
2023/03/10 05:58:34;;;;;;;2.10;0.80;;;;;;;8.78;nan;95816.28;5075099;28;20311;-76
2023/03/10 06:01:02;;;;;;;1.13;0.73;;;;;;;8.77;nan;95812.03;5075648;28;20205;-76
2023/03/10 06:03:28;;;;;;;2.73;0.70;;;;;;;8.78;nan;95808.34;5074990;28;20251;-76
2023/03/10 06:05:58;;;;;;;2.03;0.73;;;;;;;8.91;nan;95798.03;5074963;28;20291;-76
2023/03/10 06:08:26;;;;;;;1.77;1.00;;;;;;;8.97;nan;95804.13;5075629;28;20204;-76
2023/03/10 06:10:53;;;;;;;1.73;0.83;;;;;;;9.01;nan;95806.00;5074169;28;20204;-75
2023/03/10 06:13:20;;;;;;;1.57;0.80;;;;;;;9.09;nan;95794.09;5074273;28;20229;-75
2023/03/10 06:15:54;;;;;;;1.47;0.97;;;;;;;9.19;nan;95797.53;5074166;28;20733;-76
2023/03/10 06:18:21;;;;;;;3.43;0.87;;;;;;;9.38;nan;95803.09;5074541;28;20194;-76
2023/03/10 06:20:49;;;;;;;3.27;1.00;;;;;;;9.56;nan;95797.25;5074519;28;20205;-76
2023/03/10 06:23:17;;;;;;;1.30;0.50;;;;;;;9.47;nan;95796.22;5073405;28;20224;-76
2023/03/10 06:25:44;;;;;;;2.43;0.87;;;;;;;9.30;nan;95793.03;5074395;28;20204;-76
2023/03/10 06:28:11;;;;;;;2.23;0.87;;;;;;;9.21;nan;95768.09;5074532;28;20212;-75
2023/03/10 06:30:38;;;;;;;1.23;0.63;;;;;;;9.04;nan;95778.16;5074141;28;20236;-76
2023/03/10 06:33:04;;;;;;;2.60;0.80;;;;;;;8.90;nan;95758.53;5073834;28;20225;-76
2023/03/10 06:35:31;;;;;;;2.23;0.80;;;;;;;8.80;nan;95742.66;5074250;28;20208;-75
2023/03/10 06:37:58;;;;;;;0.67;0.67;;;;;;;8.75;nan;95732.84;5074003;28;20204;-76
2023/03/10 06:40:24;;;;;;;2.43;0.70;;;;;;;8.74;nan;95717.22;5073975;28;20498;-75
2023/03/10 06:42:51;;;;;;;1.73;0.73;;;;;;;8.77;nan;95690.19;5074164;28;20232;-75
2023/03/10 06:45:18;;;;;;;1.80;0.70;;;;;;;8.68;nan;95697.06;5073435;28;20248;-76
2023/03/10 06:47:44;;;;;;;1.70;0.60;;;;;;;8.55;nan;95711.63;5073691;28;20216;-76
2023/03/10 06:50:12;;;;;;;1.53;0.57;;;;;;;8.51;nan;95728.31;5073714;28;20236;-75
2023/03/10 06:52:41;;;;;;;0.93;0.50;;;;;;;8.52;nan;95741.28;5073461;28;20249;-76
2023/03/10 06:55:08;;;;;;;3.83;0.40;;;;;;;8.50;nan;95732.81;5073717;28;20204;-76
2023/03/10 06:57:34;;;;;;;0.60;0.50;;;;;;;8.52;nan;95730.72;5073724;28;20613;-76
2023/03/10 07:00:00;;;;;;;1.73;0.40;;;;;;;8.48;nan;95728.81;5073569;28;20223;-76
2023/03/10 07:02:27;;;;;;;1.13;0.40;;;;;;;8.55;nan;95737.31;5073440;28;20224;-75
2023/03/10 07:04:53;;;;;;;1.03;0.40;;;;;;;8.63;nan;95742.91;5073345;28;20208;-76
2023/03/10 07:07:19;;;;;;;0.70;0.47;;;;;;;8.77;nan;95753.75;5073209;28;20209;-76
2023/03/10 07:09:46;;;;;;;0.30;0.30;;;;;;;8.82;nan;95748.50;5073155;28;20251;-76
2023/03/10 07:12:12;;;;;;;1.50;0.50;;;;;;;8.87;nan;95759.09;5072863;28;20226;-76
2023/03/10 07:14:39;;;;;;;0.90;0.40;;;;;;;8.90;nan;95755.91;5072581;28;20212;-76
2023/03/10 07:17:05;;;;;;;2.33;0.60;;;;;;;8.94;nan;95751.66;5073102;28;20209;-76
2023/03/10 07:19:31;;;;;;;0.47;0.47;;;;;;;8.98;nan;95745.59;5073390;28;20196;-76
2023/03/10 07:21:58;;;;;;;1.23;0.50;;;;;;;9.00;nan;95753.28;5073086;28;20592;-76
2023/03/10 07:24:25;;;;;;;0.40;0.40;;;;;;;8.99;nan;95751.66;5073338;28;20296;-76
2023/03/10 07:26:51;;;;;;;0.57;0.57;;;;;;;9.07;nan;95743.19;5073170;28;20541;-76
2023/03/10 07:29:18;;;;;;;0.70;0.60;;;;;;;9.08;nan;95745.59;5072837;28;20220;-76
2023/03/10 07:31:45;;;;;;;2.23;0.73;;;;;;;9.13;nan;95764.13;5073022;28;20204;-76
2023/03/10 07:34:11;;;;;;;1.90;0.50;;;;;;;9.26;nan;95768.09;5072689;28;20205;-76
2023/03/10 07:36:37;;;;;;;1.83;0.50;;;;;;;9.29;nan;95776.34;5072940;28;20200;-76
2023/03/10 07:39:04;;;;;;;1.03;0.47;;;;;;;9.44;nan;95772.88;5073161;28;20207;-76
2023/03/10 07:41:30;;;;;;;1.20;0.60;;;;;;;9.44;nan;95776.31;5073134;28;20204;-76
2023/03/10 07:43:56;;;;;;;1.73;0.80;;;;;;;9.31;nan;95774.22;5073027;28;20205;-76
2023/03/10 07:46:23;;;;;;;2.40;0.60;;;;;;;9.47;nan;95762.53;5073101;28;20204;-76
2023/03/10 07:48:51;;;;;;;1.20;0.40;;;;;;;9.49;nan;95770.22;5073208;28;20219;-76
2023/03/10 07:51:17;;;;;;;0.60;0.50;;;;;;;9.61;nan;95765.44;5073461;28;20212;-76
2023/03/10 07:53:44;;;;;;;1.67;0.80;;;;;;;9.62;nan;95773.13;5073365;28;20228;-76
2023/03/10 07:56:12;;;;;;;1.00;0.70;;;;;;;9.67;nan;95777.59;5073148;28;20211;-76
2023/03/10 07:58:40;;;;;;;1.37;0.40;;;;;;;9.77;nan;95772.31;5072765;28;20307;-76
2023/03/10 08:01:08;;;;;;;0.60;0.60;;;;;;;9.78;nan;95771.25;5072939;28;20205;-76
2023/03/10 08:03:35;;;;;;;1.50;0.70;;;;;;;9.58;nan;95768.59;5072908;28;20225;-76
2023/03/10 08:06:04;;;;;;;1.70;0.70;;;;;;;9.58;nan;95779.22;5072564;28;20204;-76
2023/03/10 08:08:30;;;;;;;1.63;0.67;;;;;;;9.34;nan;95778.19;5069284;28;20200;-77
2023/03/10 08:11:09;;;;;;;1.43;0.50;;;;;;;9.21;nan;95794.63;5061459;28;20220;-77
2023/03/10 08:13:35;;;;;;;1.13;0.70;;;;;;;9.02;nan;95801.50;5062655;28;20231;-77
2023/03/10 08:16:03;;;;;;;1.70;0.60;;;;;;;8.91;nan;95799.91;5061092;28;20232;-77
2023/03/10 08:18:31;;;;;;;2.27;0.83;;;;;;;8.80;nan;95808.88;5062422;28;20756;-77
2023/03/10 08:21:03;;;;;;;2.50;0.63;;;;;;;8.71;nan;95807.78;5063522;28;20231;-77
2023/03/10 08:23:32;;;;;;;2.50;0.63;;;;;;;8.61;nan;95821.00;5062255;28;20221;-77
2023/03/10 08:26:04;;;;;;;2.30;0.50;;;;;;;8.57;nan;95804.03;5060919;28;20216;-77
2023/03/10 08:28:31;;;;;;;0.50;0.40;;;;;;;8.62;nan;95814.66;5061924;28;20201;-77
2023/03/10 08:30:59;;;;;;;1.70;0.60;;;;;;;8.65;nan;95806.97;5063019;28;20213;-77
2023/03/10 08:33:27;;;;;;;0.30;0.30;;;;;;;8.76;nan;95824.50;5061509;28;20224;-78
2023/03/10 08:36:28;;;;;;;0.57;0.40;;;;;;;8.81;nan;95829.00;5061701;28;20608;-77
2023/03/10 08:38:59;;;;;;;0.80;0.43;;;;;;;8.83;nan;95834.84;5062432;28;20225;-77
2023/03/10 08:41:34;;;;;;;0.60;0.60;;;;;;;8.86;nan;95834.31;5061581;28;20203;-77
2023/03/10 08:44:01;;;;;;;0.53;0.40;;;;;;;8.94;nan;95824.00;5061235;28;20189;-77
2023/03/10 08:46:30;;;;;;;0.90;0.50;;;;;;;9.12;nan;95828.00;5064242;28;20205;-77
2023/03/10 08:48:58;;;;;;;1.93;0.47;;;;;;;9.37;nan;95839.41;5066793;28;20205;-77
2023/03/10 08:51:24;;;;;;;1.00;0.50;;;;;;;9.40;nan;95856.66;5066567;28;20692;-76
2023/03/10 08:53:52;;;;;;;1.90;0.50;;;;;;;9.15;nan;95830.91;5065479;28;20578;-77
2023/03/10 08:56:21;;;;;;;0.87;0.50;;;;;;;9.09;nan;95825.91;5065177;28;20201;-77
2023/03/10 08:58:48;;;;;;;1.87;0.60;;;;;;;9.02;nan;95828.81;5065442;28;20197;-76
2023/03/10 09:01:16;;;;;;;0.43;0.40;;;;;;;9.21;nan;95834.38;5065467;28;20549;-77
2023/03/10 09:03:44;;;;;;;2.37;0.50;;;;;;;9.37;nan;95833.34;5066695;28;20220;-76
2023/03/10 09:06:11;;;;;;;1.40;0.50;;;;;;;9.50;nan;95854.03;5065848;28;20197;-77
2023/03/10 09:08:38;;;;;;;1.10;0.60;;;;;;;9.73;nan;95856.16;5064910;28;20192;-77
2023/03/10 09:11:05;;;;;;;0.50;0.50;;;;;;;9.98;nan;95848.94;5064414;28;20625;-76
2023/03/10 09:13:31;;;;;;;0.90;0.30;;;;;;;10.27;nan;95855.28;5065313;28;20216;-76
2023/03/10 09:15:58;;;;;;;0.73;0.43;;;;;;;10.40;nan;95854.72;5065947;28;20201;-76
2023/03/10 09:18:24;;;;;;;1.07;0.50;;;;;;;10.58;nan;95848.00;5066830;28;20203;-76
2023/03/10 09:20:51;;;;;;;0.30;0.30;;;;;;;10.61;nan;95844.81;5065225;28;20644;-76
2023/03/10 09:23:17;;;;;;;1.37;0.57;;;;;;;10.50;nan;95852.00;5069755;28;20660;-76
2023/03/10 09:25:44;;;;;;;1.30;0.50;;;;;;;10.52;nan;95857.06;5076098;28;20211;-77
2023/03/10 09:28:11;;;;;;;0.93;0.60;;;;;;;10.73;nan;95850.59;5075915;28;20216;-76
2023/03/10 09:30:41;;;;;;;0.87;0.40;;;;;;;10.82;nan;95857.72;5075358;28;20217;-76
2023/03/10 09:33:15;;;;;;;2.13;0.73;;;;;;;10.64;nan;95855.66;5075277;28;20233;-75
2023/03/10 09:35:41;;;;;;;1.13;0.53;;;;;;;10.52;nan;95857.06;5075730;28;20560;-75
2023/03/10 09:38:08;;;;;;;0.93;0.70;;;;;;;10.57;nan;95859.69;5075422;28;20204;-77
2023/03/10 09:40:39;;;;;;;0.90;0.70;;;;;;;10.63;nan;95853.28;5075344;28;20678;-76
2023/03/10 09:43:07;;;;;;;0.97;0.60;;;;;;;10.58;nan;95862.09;5075764;28;20225;-76
2023/03/10 09:45:53;;;;;;;0.83;0.60;;;;;;;10.58;nan;95855.97;5076347;28;20219;-76
2023/03/10 09:48:23;;;;;;;2.77;0.97;;;;;;;10.61;nan;95863.41;5075459;28;20691;-76
2023/03/10 09:50:51;;;;;;;2.87;0.80;;;;;;;10.53;nan;95866.59;5075869;28;20564;-76
2023/03/10 09:53:26;;;;;;;2.47;0.80;;;;;;;10.56;nan;95868.72;5075323;28;20232;-76
2023/03/10 09:55:53;;;;;;;2.00;0.80;;;;;;;10.49;nan;95865.56;5075374;28;20212;-76
2023/03/10 09:58:25;;;;;;;3.13;0.80;;;;;;;10.39;nan;95854.97;5073642;28;20751;-76
2023/03/10 10:00:52;;;;;;;1.90;0.57;;;;;;;10.41;nan;95863.47;5075195;28;20207;-76
2023/03/10 10:03:25;;;;;;;2.80;0.90;;;;;;;10.50;nan;95859.19;5074695;28;20758;-76
2023/03/10 10:05:54;;;;;;;1.50;0.67;;;;;;;10.55;nan;95857.31;5074714;28;20672;-75
2023/03/10 10:08:26;;;;;;;2.73;0.80;;;;;;;10.71;nan;95850.88;5074838;28;20210;-76
2023/03/10 10:10:58;;;;;;;2.10;0.50;;;;;;;10.52;nan;95857.88;5074569;28;20221;-75
2023/03/10 10:13:29;;;;;;;2.50;0.90;;;;;;;10.54;nan;95854.94;5075000;28;20224;-76
2023/03/10 10:16:02;;;;;;;0.77;0.70;;;;;;;10.56;nan;95855.44;5074530;28;20212;-75
2023/03/10 10:18:57;;;;;;;2.13;0.60;;;;;;;10.36;nan;95856.31;5075116;28;20208;-76
2023/03/10 10:22:13;;;;;;;3.30;0.70;;;;;;;10.25;nan;95856.59;5072731;28;20553;-76
2023/03/10 10:24:40;;;;;;;2.70;0.73;;;;;;;10.12;nan;95850.00;5065169;28;20212;-76
2023/03/10 10:27:06;;;;;;;2.87;0.70;;;;;;;10.08;nan;95848.16;5074897;28;20205;-76
2023/03/10 10:29:41;;;;;;;4.10;0.70;;;;;;;10.05;nan;95846.81;5074465;28;20208;-77
2023/03/10 10:32:16;;;;;;;1.57;0.70;;;;;;;10.11;nan;95842.31;5074076;28;20231;-76
2023/03/10 10:34:46;;;;;;;1.57;0.70;;;;;;;10.19;nan;95844.41;5074406;28;20212;-77
2023/03/10 10:37:41;;;;;;;2.60;0.73;;;;;;;10.17;nan;95849.19;5074377;28;20204;-76
2023/03/10 10:40:29;;;;;;;1.47;0.80;;;;;;;10.16;nan;95843.09;5072724;28;20219;-76
2023/03/10 10:42:59;;;;;;;1.13;0.43;;;;;;;10.18;nan;95840.19;5074116;28;20239;-76
2023/03/10 10:45:32;;;;;;;1.47;0.80;;;;;;;10.31;nan;95842.25;5074277;28;20204;-77
2023/03/10 10:47:58;;;;;;;1.60;0.60;;;;;;;10.27;nan;95844.66;5073834;28;20570;-76
2023/03/10 10:50:30;;;;;;;1.83;0.80;;;;;;;10.27;nan;95849.97;5073702;28;20662;-76
2023/03/10 10:53:16;;;;;;;1.87;1.00;;;;;;;10.32;nan;95846.50;5074029;28;20231;-75
2023/03/10 10:55:45;;;;;;;2.47;1.10;;;;;;;10.43;nan;95848.06;5073554;28;20686;-75
2023/03/10 10:58:29;;;;;;;2.47;0.80;;;;;;;10.46;nan;95844.88;5073941;28;20212;-75
2023/03/10 11:01:18;;;;;;;2.77;0.50;;;;;;;10.42;nan;95852.56;5073781;28;20227;-75
2023/03/10 11:03:46;;;;;;;3.33;0.73;;;;;;;10.54;nan;95854.94;5073651;28;20231;-75
2023/03/10 11:06:27;;;;;;;2.20;0.67;;;;;;;10.43;nan;95850.72;5073288;28;20209;-75
2023/03/10 11:09:12;;;;;;;1.67;0.60;;;;;;;10.46;nan;95845.66;5073968;28;20189;-75
2023/03/10 11:12:07;;;;;;;0.93;0.60;;;;;;;10.64;nan;95857.56;5072236;28;20213;-75
2023/03/10 11:15:19;;;;;;;2.63;0.60;;;;;;;10.64;nan;95857.56;5073631;28;20204;-75
2023/03/10 11:18:16;;;;;;;1.93;1.00;;;;;;;10.50;nan;95870.59;5072581;28;20193;-76
2023/03/10 11:20:51;;;;;;;1.97;0.60;;;;;;;10.54;nan;95868.22;5072441;28;20196;-75
2023/03/10 11:23:55;;;;;;;1.50;0.63;;;;;;;10.55;nan;95867.94;5073483;28;20228;-75
2023/03/10 11:26:32;;;;;;;2.00;0.70;;;;;;;10.57;nan;95878.28;5073441;28;20207;-75
2023/03/10 11:29:18;;;;;;;1.47;0.67;;;;;;;10.54;nan;95879.63;5073343;28;20196;-76
2023/03/10 11:32:29;;;;;;;2.23;1.20;;;;;;;10.60;nan;95880.41;5073112;28;20209;-75
2023/03/10 11:34:57;;;;;;;3.63;0.77;;;;;;;10.63;nan;95879.84;5067790;28;20215;-75
2023/03/10 11:37:23;;;;;;;0.93;0.60;;;;;;;10.77;nan;95878.22;5073272;28;20250;-75
2023/03/10 11:40:22;;;;;;;3.27;0.90;;;;;;;10.79;nan;95884.06;5073471;28;20260;-75
2023/03/10 11:43:03;;;;;;;1.70;0.70;;;;;;;10.76;nan;95876.63;5073058;28;20217;-75
2023/03/10 11:45:51;;;;;;;1.07;0.60;;;;;;;10.88;nan;95879.75;5071933;28;20192;-75
2023/03/10 11:48:32;;;;;;;3.53;0.70;;;;;;;10.89;nan;95868.88;5072676;28;20201;-76
2023/03/10 11:51:02;;;;;;;2.80;0.73;;;;;;;10.65;nan;95883.03;5073119;28;20232;-75
2023/03/10 11:53:41;;;;;;;3.10;0.77;;;;;;;10.61;nan;95863.41;5071977;28;20252;-76
2023/03/10 11:56:09;;;;;;;1.63;0.70;;;;;;;10.52;nan;95873.00;5072210;28;20326;-76
2023/03/10 11:58:48;;;;;;;1.57;0.57;;;;;;;10.35;nan;95870.66;5071875;28;20315;-76
2023/03/10 12:01:21;;;;;;;3.40;0.80;;;;;;;10.31;nan;95869.59;5073203;28;20200;-75
2023/03/10 12:03:58;;;;;;;1.33;0.43;;;;;;;10.39;nan;95871.72;5073171;28;20221;-75
2023/03/10 12:06:32;;;;;;;0.60;0.60;;;;;;;10.46;nan;95879.41;5072003;28;20601;-75
2023/03/10 12:09:01;;;;;;;2.10;0.70;;;;;;;10.42;nan;95865.06;5072912;28;20192;-75